createdAt,value
2023-04-02T00:01:01.363Z,3.45
2023-04-02T00:03:53.405Z,3.85
2023-04-02T00:06:44.892Z,3.88
2023-04-02T00:09:33.091Z,4.22
2023-04-02T00:12:19.561Z,4.80
2023-04-02T00:15:04.585Z,4.43
2023-04-02T00:17:49.495Z,4.90
2023-04-02T00:20:40.660Z,4.70
2023-04-02T00:23:26.449Z,4.32
2023-04-02T00:26:21.730Z,4.70
2023-04-02T00:29:07.485Z,4.20
2023-04-02T00:31:54.266Z,4.50
2023-04-02T00:34:39.580Z,5.03
2023-04-02T00:37:38.498Z,5.15
2023-04-02T00:40:29.206Z,4.93
2023-04-02T00:43:18.739Z,5.10
2023-04-02T00:46:10.795Z,4.72
2023-04-02T00:49:14.739Z,4.32
2023-04-02T00:52:04.339Z,4.22
2023-04-02T00:55:00.900Z,4.20
2023-04-02T00:57:46.445Z,4.38
2023-04-02T01:00:37.392Z,4.82
2023-04-02T01:03:28.918Z,4.13
2023-04-02T01:06:18.692Z,3.45
2023-04-02T01:09:17.047Z,4.17
2023-04-02T01:12:29.604Z,4.00
2023-04-02T01:15:21.512Z,3.72
2023-04-02T01:18:33.332Z,3.70
2023-04-02T01:21:34.507Z,3.65
2023-04-02T01:24:21.198Z,3.20
2023-04-02T01:27:14.206Z,3.60
2023-04-02T01:30:01.519Z,3.67
2023-04-02T01:32:47.264Z,3.08
2023-04-02T01:35:38.764Z,2.90
2023-04-02T01:38:31.941Z,2.60
2023-04-02T01:41:26.940Z,2.22
2023-04-02T01:44:17.748Z,1.67
2023-04-02T01:47:05.421Z,1.40
2023-04-02T01:49:56.711Z,1.40
2023-04-02T01:52:44.996Z,1.20
2023-04-02T01:55:32.664Z,1.27
2023-04-02T01:58:27.197Z,1.20
2023-04-02T02:01:16.364Z,1.45
2023-04-02T02:04:01.926Z,1.67
2023-04-02T02:06:47.182Z,1.90
2023-04-02T02:09:35.360Z,1.83
2023-04-02T02:12:20.195Z,1.60
2023-04-02T02:15:14.497Z,1.60
2023-04-02T02:18:04.407Z,1.30
2023-04-02T02:20:51.590Z,1.60
2023-04-02T02:23:36.909Z,1.42
2023-04-02T02:26:26.296Z,1.20
2023-04-02T02:29:16.967Z,1.10
2023-04-02T02:32:03.991Z,1.40
2023-04-02T02:34:56.313Z,1.30
2023-04-02T02:37:46.327Z,1.40
2023-04-02T02:40:38.669Z,1.20
2023-04-02T02:43:24.489Z,1.45
2023-04-02T02:46:16.512Z,1.30
2023-04-02T02:49:04.523Z,0.97
2023-04-02T02:52:06.434Z,1.15
2023-04-02T02:55:00.990Z,1.35
2023-04-02T02:57:52.245Z,1.30
2023-04-02T03:00:39.038Z,1.40
2023-04-02T03:03:28.827Z,1.17
2023-04-02T03:06:20.471Z,0.95
2023-04-02T03:09:28.776Z,1.30
2023-04-02T03:12:36.465Z,1.60
2023-04-02T03:15:39.837Z,1.55
2023-04-02T03:18:35.165Z,1.17
2023-04-02T03:21:51.644Z,1.23
2023-04-02T03:24:55.848Z,1.33
2023-04-02T03:27:46.463Z,1.30
2023-04-02T03:30:41.318Z,1.40
2023-04-02T03:33:35.707Z,1.30
2023-04-02T03:36:32.778Z,1.00
2023-04-02T03:39:28.498Z,1.17
2023-04-02T03:42:20.442Z,1.40
2023-04-02T03:45:15.675Z,1.30
2023-04-02T03:48:18.365Z,1.27
2023-04-02T03:51:12.145Z,1.20
2023-04-02T03:53:57.196Z,1.30
2023-04-02T03:56:47.138Z,1.20
2023-04-02T03:59:42.589Z,1.30
2023-04-02T04:02:39.727Z,1.30
2023-04-02T04:05:29.688Z,1.42
2023-04-02T04:08:32.718Z,1.60
2023-04-02T04:11:22.646Z,1.85
2023-04-02T04:14:16.474Z,1.85
2023-04-02T04:17:09.229Z,1.50
2023-04-02T04:20:08.062Z,1.90
2023-04-02T04:22:55.824Z,1.95
2023-04-02T04:25:41.233Z,2.03
2023-04-02T04:28:49.825Z,2.15
2023-04-02T04:31:38.864Z,1.90
2023-04-02T04:34:56.938Z,2.05
2023-04-02T04:37:49.403Z,2.10
2023-04-02T04:40:41.713Z,2.40
2023-04-02T04:43:52.635Z,2.45
2023-04-02T04:46:46.709Z,2.33
2023-04-02T04:49:40.271Z,2.63
2023-04-02T04:52:34.220Z,2.50
2023-04-02T04:55:27.670Z,1.63
2023-04-02T04:58:29.751Z,2.03
2023-04-02T05:01:46.297Z,2.23
2023-04-02T05:04:36.135Z,1.85
2023-04-02T05:07:43.074Z,2.42
2023-04-02T05:10:43.922Z,2.15
2023-04-02T05:13:40.251Z,1.92
2023-04-02T05:16:43.161Z,2.03
2023-04-02T05:19:41.800Z,2.05
2023-04-02T05:22:48.446Z,2.10
2023-04-02T05:25:33.848Z,2.17
2023-04-02T05:28:26.450Z,2.30
2023-04-02T05:31:26.129Z,2.07
2023-04-02T05:34:12.343Z,1.75
2023-04-02T05:36:58.319Z,2.10
2023-04-02T05:39:45.618Z,2.22
2023-04-02T05:42:35.191Z,2.20
2023-04-02T05:45:32.241Z,2.00
2023-04-02T05:48:20.894Z,1.85
2023-04-02T05:51:12.003Z,2.45
2023-04-02T05:54:00.106Z,2.10
2023-04-02T05:56:48.492Z,2.00
2023-04-02T05:59:46.009Z,2.50
2023-04-02T06:02:45.106Z,2.13
2023-04-02T06:05:36.828Z,2.28
2023-04-02T06:08:29.699Z,2.60
2023-04-02T06:11:28.558Z,2.20
2023-04-02T06:14:16.135Z,2.50
2023-04-02T06:17:01.071Z,2.63
2023-04-02T06:19:47.864Z,2.88
2023-04-02T06:22:37.758Z,2.58
2023-04-02T06:25:42.822Z,2.53
2023-04-02T06:28:36.055Z,2.60
2023-04-02T06:31:36.123Z,2.78
2023-04-02T06:34:24.289Z,2.63
2023-04-02T06:37:19.432Z,2.40
2023-04-02T06:40:17.219Z,2.63
2023-04-02T06:43:13.127Z,2.97
2023-04-02T06:46:01.128Z,2.72
2023-04-02T06:48:50.450Z,2.75
2023-04-02T06:51:37.115Z,2.80
2023-04-02T06:54:22.022Z,2.78
2023-04-02T06:57:08.163Z,2.50
2023-04-02T06:59:53.439Z,2.35
2023-04-02T07:02:39.681Z,2.63
2023-04-02T07:05:24.484Z,2.88
2023-04-02T07:08:09.652Z,2.80
2023-04-02T07:10:56.092Z,2.73
2023-04-02T07:13:41.180Z,2.92
2023-04-02T07:16:29.204Z,3.40
2023-04-02T07:19:22.783Z,3.33
2023-04-02T07:22:08.069Z,3.63
2023-04-02T07:24:53.377Z,3.63
2023-04-02T07:27:38.480Z,3.78
2023-04-02T07:30:23.713Z,3.65
2023-04-02T07:33:13.860Z,3.60
2023-04-02T07:35:58.959Z,3.05
2023-04-02T07:38:44.031Z,3.17
2023-04-02T07:41:29.205Z,3.50
2023-04-02T07:44:14.873Z,3.17
2023-04-02T07:46:59.775Z,3.63
2023-04-02T07:49:44.745Z,2.53
2023-04-02T07:52:29.508Z,3.50
2023-04-02T07:55:16.045Z,3.97
2023-04-02T07:58:01.726Z,2.88
2023-04-02T08:00:46.641Z,3.30
2023-04-02T08:03:32.755Z,2.47
2023-04-02T08:06:18.138Z,3.53
2023-04-02T08:09:03.634Z,3.47
2023-04-02T08:11:48.728Z,3.40
2023-04-02T08:14:33.624Z,2.97
2023-04-02T08:17:18.731Z,2.92
2023-04-02T08:20:05.442Z,3.83
2023-04-02T08:22:50.529Z,3.58
2023-04-02T08:25:35.748Z,3.50
2023-04-02T08:28:21.185Z,3.50
2023-04-02T08:31:08.857Z,3.53
2023-04-02T08:33:54.078Z,2.73
2023-04-02T08:36:43.229Z,3.70
2023-04-02T08:39:32.905Z,3.05
2023-04-02T08:43:03.176Z,3.28
2023-04-02T08:46:14.445Z,3.55
2023-04-02T08:49:03.576Z,3.10
2023-04-02T08:51:49.045Z,3.35
2023-04-02T08:54:39.156Z,3.28
2023-04-02T08:57:33.855Z,3.60
2023-04-02T09:00:18.622Z,2.63
2023-04-02T09:03:13.358Z,3.60
2023-04-02T09:05:59.589Z,2.75
2023-04-02T09:08:47.673Z,3.65
2023-04-02T09:11:47.333Z,3.40
2023-04-02T09:14:45.116Z,3.70
2023-04-02T09:17:36.943Z,2.97
2023-04-02T09:20:29.003Z,3.88
2023-04-02T09:23:21.413Z,4.15
2023-04-02T09:26:21.932Z,3.38
2023-04-02T09:29:13.195Z,4.20
2023-04-02T09:32:08.525Z,3.77
2023-04-02T09:35:26.651Z,4.68
2023-04-02T09:38:32.721Z,3.33
2023-04-02T09:41:21.070Z,4.25
2023-04-02T09:44:32.347Z,3.75
2023-04-02T09:47:26.202Z,4.00
2023-04-02T09:50:29.808Z,3.90
2023-04-02T09:53:35.419Z,3.70
2023-04-02T09:56:25.514Z,4.40
2023-04-02T09:59:13.256Z,3.63
2023-04-02T10:02:01.757Z,3.97
2023-04-02T10:04:49.349Z,3.63
2023-04-02T10:07:45.830Z,3.60
2023-04-02T10:10:44.850Z,3.47
2023-04-02T10:13:41.174Z,3.10
2023-04-02T10:16:33.078Z,3.57
2023-04-02T10:19:28.276Z,4.07
2023-04-02T10:22:16.464Z,3.40
2023-04-02T10:25:01.611Z,3.40
2023-04-02T10:28:34.535Z,3.70
2023-04-02T10:31:35.588Z,3.40
2023-04-02T10:34:33.945Z,3.25
2023-04-02T10:37:50.047Z,3.00
2023-04-02T10:40:39.782Z,2.58
2023-04-02T10:43:37.068Z,4.13
2023-04-02T10:46:48.355Z,3.93
2023-04-02T10:49:44.501Z,4.07
2023-04-02T10:52:34.310Z,3.97
2023-04-02T10:55:25.345Z,3.70
2023-04-02T10:58:23.478Z,4.00
2023-04-02T11:01:17.074Z,4.03
2023-04-02T11:04:08.060Z,2.60
2023-04-02T11:07:07.049Z,3.60
2023-04-02T11:09:58.630Z,4.15
2023-04-02T11:12:50.448Z,3.72
2023-04-02T11:15:37.393Z,3.00
2023-04-02T11:18:29.523Z,3.88
2023-04-02T11:21:29.770Z,3.53
2023-04-02T11:24:32.759Z,3.60
2023-04-02T11:27:24.272Z,3.47
2023-04-02T11:30:26.980Z,3.03
2023-04-02T11:36:55.325Z,3.53
2023-04-02T11:39:53.219Z,2.90
2023-04-02T11:42:40.402Z,3.00
2023-04-02T11:45:28.412Z,3.80
2023-04-02T11:48:13.238Z,3.15
2023-04-02T11:50:58.556Z,3.83
2023-04-02T11:53:43.725Z,3.97
2023-04-02T11:56:43.011Z,3.40
2023-04-02T11:59:40.152Z,3.63
2023-04-02T12:02:52.017Z,3.65
2023-04-02T12:05:43.036Z,3.17
2023-04-02T12:08:57.092Z,3.45
2023-04-02T12:11:43.524Z,2.63
2023-04-02T12:14:43.003Z,3.07
2023-04-02T12:17:37.096Z,3.38
2023-04-02T12:20:30.393Z,1.90
2023-04-02T12:23:19.949Z,3.00
2023-04-02T12:26:08.281Z,2.90
2023-04-02T12:28:53.282Z,3.33
2023-04-02T12:31:43.330Z,3.15
2023-04-02T12:34:30.023Z,3.13
2023-04-02T12:37:29.749Z,3.63
2023-04-02T12:40:18.618Z,3.47
2023-04-02T12:43:03.654Z,3.53
2023-04-02T12:45:52.896Z,3.35
2023-04-02T12:48:38.240Z,3.03
2023-04-02T12:51:23.414Z,3.83
2023-04-02T12:54:17.220Z,3.47
2023-04-02T12:57:27.057Z,3.07
2023-04-02T13:00:21.124Z,2.72
2023-04-02T13:03:05.991Z,2.58
2023-04-02T13:05:55.014Z,3.20
2023-04-02T13:08:43.304Z,2.40
2023-04-02T13:11:54.566Z,3.03
2023-04-02T13:14:39.605Z,3.10
2023-04-02T13:17:40.697Z,3.10
2023-04-02T13:20:32.151Z,3.25
2023-04-02T13:23:29.479Z,2.95
2023-04-02T13:26:24.849Z,3.23
2023-04-02T13:29:28.226Z,3.78
2023-04-02T13:32:13.428Z,3.50
2023-04-02T13:34:58.347Z,3.95
2023-04-02T13:37:43.664Z,3.15
2023-04-02T13:40:28.707Z,3.03
2023-04-02T13:43:20.514Z,3.63
2023-04-02T13:46:06.976Z,3.78
2023-04-02T13:48:54.333Z,2.80
2023-04-02T13:51:44.364Z,2.53
2023-04-02T13:54:38.745Z,4.47
2023-04-02T13:57:23.648Z,2.67
2023-04-02T14:00:10.228Z,3.22
2023-04-02T14:03:04.300Z,3.05
2023-04-02T14:06:08.240Z,3.08
2023-04-02T14:09:04.155Z,2.57
2023-04-02T14:12:13.310Z,3.08
2023-04-02T14:15:20.366Z,2.70
2023-04-02T14:18:36.542Z,2.88
2023-04-02T14:21:51.668Z,2.90
2023-04-02T14:24:39.290Z,1.30
2023-04-02T14:27:56.429Z,2.70
2023-04-02T14:30:58.830Z,2.60
2023-04-02T14:34:08.521Z,2.40
2023-04-02T14:37:13.798Z,2.58
2023-04-02T14:40:27.069Z,2.40
2023-04-02T14:43:26.097Z,3.10
2023-04-02T14:46:11.493Z,3.05
2023-04-02T14:49:03.811Z,2.65
2023-04-02T14:51:53.630Z,2.92
2023-04-02T14:54:55.201Z,2.77
2023-04-02T14:57:51.222Z,2.72
2023-04-02T15:00:50.553Z,2.00
2023-04-02T15:03:44.028Z,2.15
2023-04-02T15:06:52.879Z,1.90
2023-04-02T15:09:44.706Z,1.63
2023-04-02T15:12:35.815Z,1.80
2023-04-02T15:15:42.841Z,1.80
2023-04-02T15:18:27.856Z,1.73
2023-04-02T15:21:29.399Z,1.90
2023-04-02T15:24:17.136Z,1.37
2023-04-02T15:27:24.564Z,2.67
2023-04-02T15:30:20.067Z,1.63
2023-04-02T15:33:32.310Z,2.20
2023-04-02T15:36:26.564Z,2.10
2023-04-02T15:39:35.840Z,2.50
2023-04-02T15:42:32.946Z,1.80
2023-04-02T15:45:20.989Z,1.98
2023-04-02T15:48:34.437Z,2.20
2023-04-02T15:51:31.762Z,2.80
2023-04-02T15:54:37.834Z,2.47
2023-04-02T15:57:44.795Z,1.90
2023-04-02T16:00:31.803Z,2.10
2023-04-02T16:03:43.081Z,2.40
2023-04-02T16:06:56.423Z,2.55
2023-04-02T16:09:52.642Z,2.37
2023-04-02T16:12:40.846Z,1.55
2023-04-02T16:15:40.061Z,1.85
2023-04-02T16:18:51.175Z,2.20
2023-04-02T16:21:50.372Z,1.67
2023-04-02T16:24:35.379Z,1.83
2023-04-02T16:27:33.111Z,2.00
2023-04-02T16:30:31.449Z,1.90
2023-04-02T16:33:28.120Z,1.58
2023-04-02T16:36:37.776Z,2.00
2023-04-02T16:39:51.234Z,2.10
2023-04-02T16:43:05.163Z,1.70
2023-04-02T16:46:05.495Z,1.70
2023-04-02T16:48:58.393Z,1.25
2023-04-02T16:52:19.833Z,1.67
2023-04-02T16:55:23.325Z,1.57
2023-04-02T16:58:22.971Z,1.55
2023-04-02T17:01:20.846Z,2.05
2023-04-02T17:04:14.856Z,3.58
2023-04-02T17:07:14.986Z,2.03
2023-04-02T17:10:26.710Z,1.53
2023-04-02T17:13:17.557Z,1.63
2023-04-02T17:16:08.519Z,2.25
2023-04-02T17:18:57.877Z,1.63
2023-04-02T17:21:52.743Z,1.30
2023-04-02T17:24:45.580Z,1.47
2023-04-02T17:27:43.282Z,1.33
2023-04-02T17:30:43.096Z,1.58
2023-04-02T17:33:28.426Z,1.33
2023-04-02T17:36:25.978Z,1.65
2023-04-02T17:39:20.136Z,1.20
2023-04-02T17:42:15.678Z,1.70
2023-04-02T17:45:14.784Z,1.13
2023-04-02T17:48:17.041Z,1.13
2023-04-02T17:51:34.037Z,1.45
2023-04-02T17:54:30.671Z,1.10
2023-04-02T17:57:34.354Z,1.50
2023-04-02T18:00:36.232Z,1.13
2023-04-02T18:03:38.422Z,1.20
2023-04-02T18:06:43.318Z,0.93
2023-04-02T18:09:50.112Z,1.13
2023-04-02T18:12:56.997Z,1.02
2023-04-02T18:16:01.894Z,0.93
2023-04-02T18:19:05.791Z,4.75
2023-04-02T18:22:12.482Z,2.45
2023-04-02T18:25:19.765Z,1.10
2023-04-02T18:28:20.830Z,1.10
2023-04-02T18:31:26.899Z,1.30
2023-04-02T18:34:29.686Z,1.17
2023-04-02T18:37:38.603Z,1.08
2023-04-02T18:40:49.534Z,1.73
2023-04-02T18:43:43.690Z,1.02
2023-04-02T18:46:50.264Z,1.10
2023-04-02T18:49:39.230Z,0.95
2023-04-02T18:52:24.798Z,1.23
2023-04-02T18:55:33.061Z,0.90
2023-04-02T18:58:26.670Z,0.70
2023-04-02T19:01:22.271Z,0.95
2023-04-02T19:04:17.609Z,1.08
2023-04-02T19:07:21.323Z,1.40
2023-04-02T19:10:21.366Z,0.53
2023-04-02T19:13:18.074Z,1.40
2023-04-02T19:16:36.781Z,0.82
2023-04-02T19:19:27.833Z,0.90
2023-04-02T19:22:23.376Z,0.90
2023-04-02T19:25:41.488Z,0.90
2023-04-02T19:28:37.925Z,0.90
2023-04-02T19:31:35.324Z,0.45
2023-04-02T19:34:46.075Z,0.75
2023-04-02T19:37:42.720Z,0.95
2023-04-02T19:40:42.516Z,0.50
2023-04-02T19:43:27.428Z,0.57
2023-04-02T19:46:12.289Z,0.75
2023-04-02T19:49:03.466Z,0.60
2023-04-02T19:51:51.801Z,0.90
2023-04-02T19:54:38.364Z,0.70
2023-04-02T19:57:23.699Z,0.40
2023-04-02T20:00:13.348Z,0.80
2023-04-02T20:02:58.509Z,0.63
2023-04-02T20:05:43.855Z,0.68
2023-04-02T20:08:29.118Z,0.53
2023-04-02T20:11:14.441Z,0.52
2023-04-02T20:13:59.166Z,0.70
2023-04-02T20:16:45.706Z,0.40
2023-04-02T20:19:30.734Z,0.77
2023-04-02T20:22:15.925Z,0.40
2023-04-02T20:25:01.222Z,0.60
2023-04-02T20:27:46.520Z,0.38
2023-04-02T20:30:32.440Z,0.50
2023-04-02T20:33:19.356Z,0.70
2023-04-02T20:36:10.636Z,0.50
2023-04-02T20:38:55.713Z,0.40
2023-04-02T20:41:40.739Z,0.90
2023-04-02T20:44:26.802Z,0.50
2023-04-02T20:47:12.097Z,0.90
2023-04-02T20:49:56.880Z,0.90
2023-04-02T20:52:41.672Z,0.77
2023-04-02T20:55:26.808Z,0.60
2023-04-02T20:58:14.139Z,0.93
2023-04-02T21:01:09.857Z,0.43
2023-04-02T21:04:00.483Z,0.90
2023-04-02T21:06:45.215Z,1.00
2023-04-02T21:09:30.544Z,0.60
2023-04-02T21:12:15.856Z,0.82
2023-04-02T21:15:02.691Z,0.60
2023-04-02T21:17:48.107Z,0.60
2023-04-02T21:20:32.779Z,0.70
2023-04-02T21:23:17.771Z,0.70
2023-04-02T21:26:06.102Z,0.68
2023-04-02T21:28:51.177Z,0.95
2023-04-02T21:31:37.907Z,0.50
2023-04-02T21:34:23.042Z,0.82
2023-04-02T21:37:07.883Z,0.90
2023-04-02T21:39:53.162Z,0.90
2023-04-02T21:42:38.310Z,0.40
2023-04-02T21:45:23.121Z,0.80
2023-04-02T21:48:07.890Z,0.80
2023-04-02T21:50:53.024Z,0.90
2023-04-02T21:53:38.630Z,0.93
2023-04-02T21:56:27.983Z,1.33
2023-04-02T21:59:15.158Z,1.50
2023-04-02T22:02:00.418Z,1.00
2023-04-02T22:04:45.161Z,0.90
2023-04-02T22:07:30.873Z,1.08
2023-04-02T22:10:15.784Z,1.10
2023-04-02T22:13:01.007Z,1.20
2023-04-02T22:15:45.873Z,1.20
2023-04-02T22:18:31.100Z,1.08
2023-04-02T22:21:16.965Z,1.00
2023-04-02T22:24:03.851Z,1.60
2023-04-02T22:26:49.009Z,1.30
2023-04-02T22:29:34.106Z,1.50
2023-04-02T22:32:18.858Z,1.00
2023-04-02T22:35:03.824Z,1.20
2023-04-02T22:37:48.609Z,1.20
2023-04-02T22:40:33.542Z,1.07
2023-04-02T22:43:18.431Z,1.15
2023-04-02T22:46:05.008Z,1.23
2023-04-02T22:48:50.605Z,0.98
2023-04-02T22:51:36.124Z,1.13
2023-04-02T22:54:21.334Z,1.17
2023-04-02T22:57:06.608Z,1.10
2023-04-02T22:59:51.595Z,1.20
2023-04-02T23:02:36.935Z,0.90
2023-04-02T23:05:22.192Z,1.20
2023-04-02T23:08:07.024Z,1.33
2023-04-02T23:10:51.850Z,1.10
2023-04-02T23:13:37.663Z,1.00
2023-04-02T23:16:24.197Z,1.10
2023-04-02T23:19:09.118Z,0.85
2023-04-02T23:21:53.998Z,0.97
2023-04-02T23:24:38.813Z,1.40
2023-04-02T23:27:24.003Z,1.20
2023-04-02T23:30:09.723Z,1.38
2023-04-02T23:32:54.980Z,1.38
2023-04-02T23:35:39.747Z,1.37
2023-04-02T23:38:25.680Z,1.23
2023-04-02T23:41:14.435Z,1.20
2023-04-02T23:43:59.857Z,1.13
2023-04-02T23:46:44.805Z,1.40
2023-04-02T23:49:29.799Z,1.30
2023-04-02T23:52:15.325Z,1.33
2023-04-02T23:55:00.193Z,1.73
2023-04-02T23:57:45.248Z,1.35
